Monday, February 19, 2018, 5:03 AM EST
Back to Local

KBDR, Sikorsky Memorial Airport

Location: Stratford, CT, United States Lat: 41.167
Local Time: 5:03 AM EST (10:03 GMT) Lon: -73.133
Time Zone: US/Eastern Elev: 9 ft

Show me the last for .
Show Coded

Time T Td Feel RH Dir Speed Gust Alt SLP Vis Weather Sky Remarks
2018-02-19 04:52 34 26 30 72 130° 5 - 30.53 30.53 10 CLR None
2018-02-19 03:52 34 28 29 78 160° 6 - 30.53 30.53 10 CLR None
2018-02-19 02:52 31 27 27 85 60° 3 - 30.53 30.53 10 CLR None
2018-02-19 01:52 31 26 27 81 40° 3 - 30.54 30.54 10 CLR None
2018-02-19 00:52 31 26 27 81 70° 3 - 30.54 30.54 10 CLR 6-hr Min Temp (1am): 28.0°F
6-hr Max Temp (1am): 39.9°F
2018-02-18 23:52 30 25 25 81 50° 5 - 30.54 30.53 10 CLR 24-hr Min Temp (12am): 30.0°F
24-hr Max Temp (12am): 45.0°F
2018-02-18 22:52 33 26 28 75 10° 6 - 30.54 30.54 10 CLR None
2018-02-18 21:52 31 24 - 75 - Calm - 30.53 30.53 10 CLR None
2018-02-18 20:52 33 24 - 69 - Calm - 30.51 30.51 10 CLR None
2018-02-18 19:52 38 26 36 61 350° 3 - 30.47 30.47 10 CLR None
2018-02-18 18:52 38 25 - 59 - Calm - 30.45 30.45 10 CLR 6-hr Min Temp (7pm): 37.9°F
6-hr Max Temp (7pm): 45.0°F
2018-02-18 17:52 39 27 - 61 - Calm - 30.42 30.42 10 CLR None
2018-02-18 16:52 41 26 36 54 180° 7 - 30.38 30.38 10 CLR None
2018-02-18 15:52 41 27 36 57 210° 7 - 30.36 30.35 10 CLR None
2018-02-18 14:52 45 21 41 38 310° 7 - 30.34 30.34 10 CLR None
2018-02-18 13:52 44 23 38 42 310° 12 - 30.32 30.32 10 CLR None
2018-02-18 12:52 42 22 36 44 300° 12 - 30.32 30.32 10 CLR 6-hr Min Temp (1pm): 33.1°F
6-hr Max Temp (1pm): 43.0°F
2018-02-18 11:52 41 22 31 46 320° 13 23 30.28 30.27 10 CLR None
2018-02-18 10:52 40 24 31 52 300° 9 17 30.27 30.27 10 CLR Pressure rising rapidly
2018-02-18 09:52 38 27 26 64 340° 16 26 30.21 30.20 10 CLR None
2018-02-18 08:52 37 27 29 66 330° 12 - 30.18 30.17 10 CLR None
2018-02-18 07:52 35 29 28 78 290° 9 - 30.14 30.14 10 CLR None
2018-02-18 06:52 33 29 26 84 280° 8 - 30.07 30.07 10 CLR 6-hr Precip Total (7am): 0.01"
24-hr Precip Total (7am): 0.62"
6-hr Min Temp (7am): 33.1°F
6-hr Max Temp (7am): 34.0°F
2018-02-18 05:52 33 31 26 91 280° 8 - 30.03 30.02 10 CLR None
2018-02-18 05:14 33 31 27 91 270° 7 - 30.00 - 10 SCT010 BKN055 None

Support USWX by starting your Amazon purchase here.